createdAt,value
2023-11-20T00:00:14.578Z,100102.78
2023-11-20T00:00:48.350Z,100098.34
2023-11-20T00:01:24.215Z,100100.16
2023-11-20T00:01:57.922Z,100104.59
2023-11-20T00:02:31.260Z,100107.13
2023-11-20T00:03:07.533Z,100108.84
2023-11-20T00:03:43.566Z,100094.84
2023-11-20T00:04:17.220Z,100099.19
2023-11-20T00:04:51.362Z,100101.81
2023-11-20T00:05:25.341Z,100101.03
2023-11-20T00:05:58.645Z,100101.94
2023-11-20T00:06:32.587Z,100096.66
2023-11-20T00:07:06.864Z,100107.13
2023-11-20T00:07:43.247Z,100100.16
2023-11-20T00:08:16.475Z,100098.41
2023-11-20T00:08:50.032Z,100100.97
2023-11-20T00:09:26.729Z,100103.56
2023-11-20T00:10:01.490Z,100100.00
2023-11-20T00:10:40.191Z,100103.44
2023-11-20T00:11:17.038Z,100105.19
2023-11-20T00:11:50.863Z,100099.94
2023-11-20T00:12:25.006Z,100101.66
2023-11-20T00:12:58.635Z,100100.00
2023-11-20T00:13:32.196Z,100113.91
2023-11-20T00:14:05.683Z,100110.44
2023-11-20T00:14:39.616Z,100104.28
2023-11-20T00:15:14.118Z,100106.91
2023-11-20T00:15:47.671Z,100106.84
2023-11-20T00:16:21.133Z,100113.78
2023-11-20T00:16:55.837Z,100099.00
2023-11-20T00:17:29.533Z,100110.34
2023-11-20T00:18:05.116Z,100108.63
2023-11-20T00:18:39.322Z,100107.75
2023-11-20T00:19:13.010Z,100120.00
2023-11-20T00:19:46.797Z,100118.19
2023-11-20T00:20:20.116Z,100115.50
2023-11-20T00:20:53.393Z,100128.59
2023-11-20T00:21:27.011Z,100124.28
2023-11-20T00:22:01.464Z,100120.81
2023-11-20T00:22:35.155Z,100117.31
2023-11-20T00:23:08.723Z,100122.47
2023-11-20T00:23:42.879Z,100124.19
2023-11-20T00:24:16.986Z,100126.00
2023-11-20T00:24:50.542Z,100122.56
2023-11-20T00:25:24.090Z,100129.56
2023-11-20T00:25:57.694Z,100127.78
2023-11-20T00:26:30.970Z,100126.06
2023-11-20T00:27:10.989Z,100130.41
2023-11-20T00:27:44.618Z,100124.28
2023-11-20T00:28:18.206Z,100115.56
2023-11-20T00:28:54.843Z,100110.44
2023-11-20T00:29:28.840Z,100119.16
2023-11-20T00:30:02.169Z,100119.25
2023-11-20T00:30:35.791Z,100121.03
2023-11-20T00:31:19.121Z,100129.78
2023-11-20T00:31:52.481Z,100121.13
2023-11-20T00:32:27.015Z,100124.59
2023-11-20T00:33:01.409Z,100142.13
2023-11-20T00:33:35.214Z,100147.34
2023-11-20T00:34:09.741Z,100140.34
2023-11-20T00:34:43.706Z,100144.69
2023-11-20T00:35:17.655Z,100136.94
2023-11-20T00:35:52.179Z,100139.56
2023-11-20T00:36:25.993Z,100135.28
2023-11-20T00:37:00.298Z,100142.28
2023-11-20T00:37:33.871Z,100137.09
2023-11-20T00:38:09.011Z,100138.88
2023-11-20T00:38:43.344Z,100139.81
2023-11-20T00:39:16.984Z,100133.75
2023-11-20T00:39:50.378Z,100140.81
2023-11-20T00:40:23.939Z,100133.91
2023-11-20T00:40:58.047Z,100127.06
2023-11-20T00:41:32.888Z,100128.88
2023-11-20T00:42:08.308Z,100128.88
2023-11-20T00:42:42.816Z,100123.63
2023-11-20T00:43:17.950Z,100123.63
2023-11-20T00:43:51.554Z,100132.41
2023-11-20T00:44:24.905Z,100130.63
2023-11-20T00:44:58.166Z,100135.03
2023-11-20T00:45:31.711Z,100145.53
2023-11-20T00:46:09.373Z,100142.91
2023-11-20T00:46:43.918Z,100154.19
2023-11-20T00:47:17.594Z,100155.09
2023-11-20T00:47:51.175Z,100152.47
2023-11-20T00:48:24.865Z,100153.31
2023-11-20T00:48:58.443Z,100154.19
2023-11-20T00:49:34.820Z,100158.56
2023-11-20T00:50:09.360Z,100160.34
2023-11-20T00:50:43.764Z,100160.34
2023-11-20T00:51:17.076Z,100165.56
2023-11-20T00:51:50.957Z,100163.78
2023-11-20T00:52:25.973Z,100160.28
2023-11-20T00:53:00.340Z,100163.78
2023-11-20T00:53:36.733Z,100164.69
2023-11-20T00:54:10.697Z,100159.44
2023-11-20T00:54:44.448Z,100161.09
2023-11-20T00:55:18.056Z,100162.00
2023-11-20T00:55:52.180Z,100155.03
2023-11-20T00:56:25.915Z,100156.75
2023-11-20T00:56:59.326Z,100153.25
2023-11-20T00:57:36.328Z,100152.38
2023-11-20T00:58:09.950Z,100162.84
2023-11-20T00:58:44.135Z,100155.00
2023-11-20T00:59:17.667Z,100155.00
2023-11-20T00:59:51.924Z,100155.84
2023-11-20T01:02:09.112Z,100156.72
2023-11-20T01:02:44.365Z,100151.47
2023-11-20T01:03:18.288Z,100142.78
2023-11-20T01:03:52.075Z,100139.28
2023-11-20T01:04:26.788Z,100142.78
2023-11-20T01:05:00.940Z,100137.53
2023-11-20T01:05:34.349Z,100134.06
2023-11-20T01:06:10.132Z,100127.06
2023-11-20T01:06:44.692Z,100120.06
2023-11-20T01:07:18.009Z,100113.13
2023-11-20T01:07:52.461Z,100109.66
2023-11-20T01:08:25.784Z,100105.31
2023-11-20T01:08:59.125Z,100104.41
2023-11-20T01:09:32.676Z,100095.75
2023-11-20T01:10:08.358Z,100098.38
2023-11-20T01:10:44.230Z,100095.81
2023-11-20T01:11:19.162Z,100094.91
2023-11-20T01:11:52.696Z,100096.63
2023-11-20T01:12:26.695Z,100102.75
2023-11-20T01:13:00.297Z,100101.94
2023-11-20T01:13:33.943Z,100108.06
2023-11-20T01:14:10.325Z,100105.41
2023-11-20T01:14:46.005Z,100103.72
2023-11-20T01:15:19.735Z,100101.19
2023-11-20T01:15:56.354Z,100099.44
2023-11-20T01:16:29.944Z,100102.91
2023-11-20T01:17:04.236Z,100105.66
2023-11-20T01:17:38.503Z,100100.47
2023-11-20T01:18:13.046Z,100104.84
2023-11-20T01:18:46.759Z,100096.16
2023-11-20T01:19:20.803Z,100092.69
2023-11-20T01:19:54.369Z,100099.63
2023-11-20T01:20:28.612Z,100098.78
2023-11-20T01:21:02.309Z,100094.41
2023-11-20T01:21:38.840Z,100099.72
2023-11-20T01:22:12.991Z,100097.91
2023-11-20T01:22:46.216Z,100096.19
2023-11-20T01:23:22.919Z,100096.19
2023-11-20T01:23:56.459Z,100095.38
2023-11-20T01:24:30.492Z,100101.47
2023-11-20T01:25:04.938Z,100101.47
2023-11-20T01:25:41.615Z,100100.66
2023-11-20T01:26:16.462Z,100099.81
2023-11-20T01:26:50.429Z,100105.94
2023-11-20T01:27:23.727Z,100111.16
2023-11-20T01:27:57.871Z,100112.97
2023-11-20T01:28:31.666Z,100118.31
2023-11-20T01:29:05.487Z,100119.16
2023-11-20T01:29:38.993Z,100120.94
2023-11-20T01:30:13.130Z,100117.50
2023-11-20T01:30:46.670Z,100126.25
2023-11-20T01:31:20.818Z,100122.78
2023-11-20T01:31:54.429Z,100122.84
2023-11-20T01:32:27.871Z,100131.56
2023-11-20T01:33:01.934Z,100128.09
2023-11-20T01:33:35.535Z,100127.28
2023-11-20T01:34:09.028Z,100123.81
2023-11-20T01:34:42.710Z,100119.38
2023-11-20T01:35:17.330Z,100121.19
2023-11-20T01:35:50.720Z,100108.13
2023-11-20T01:36:24.271Z,100119.47
2023-11-20T01:36:57.840Z,100115.97
2023-11-20T01:37:34.850Z,100124.75
2023-11-20T01:38:08.431Z,100119.56
2023-11-20T01:38:41.980Z,100116.13
2023-11-20T01:39:15.537Z,100118.75
2023-11-20T01:39:51.749Z,100112.63
2023-11-20T01:40:25.038Z,100117.81
2023-11-20T01:40:58.596Z,100116.00
2023-11-20T01:41:33.385Z,100116.00
2023-11-20T01:42:08.261Z,100111.69
2023-11-20T01:42:41.867Z,100116.94
2023-11-20T01:43:15.306Z,100114.34
2023-11-20T01:43:49.051Z,100114.28
2023-11-20T01:44:22.979Z,100118.66
2023-11-20T01:44:56.541Z,100123.03
2023-11-20T01:45:31.254Z,100123.03
2023-11-20T01:46:10.850Z,100124.78
2023-11-20T01:46:44.888Z,100119.56
2023-11-20T01:47:19.042Z,100125.66
2023-11-20T01:47:52.619Z,100123.91
2023-11-20T01:48:26.891Z,100126.56
2023-11-20T01:49:05.743Z,100121.28
2023-11-20T01:49:42.350Z,100118.66
2023-11-20T01:50:16.879Z,100116.06
2023-11-20T01:50:51.598Z,100117.81
2023-11-20T01:51:27.270Z,100103.88
2023-11-20T01:52:05.668Z,100101.25
2023-11-20T01:52:47.709Z,100093.41
2023-11-20T01:53:21.746Z,100096.94
2023-11-20T01:53:57.793Z,100101.34
2023-11-20T01:54:32.993Z,100102.22
2023-11-20T01:55:10.615Z,100102.22
2023-11-20T01:55:44.890Z,100103.06
2023-11-20T01:56:18.698Z,100106.53
2023-11-20T01:56:53.005Z,100102.13
2023-11-20T01:57:27.189Z,100097.75
2023-11-20T01:58:01.252Z,100095.09
2023-11-20T01:58:37.236Z,100095.09
2023-11-20T01:59:17.458Z,100093.31
2023-11-20T01:59:51.624Z,100101.09
2023-11-20T02:00:27.813Z,100096.75
2023-11-20T02:01:02.117Z,100096.69
2023-11-20T02:01:35.977Z,100108.84
2023-11-20T02:02:10.840Z,100107.94
2023-11-20T02:02:46.058Z,100113.97
2023-11-20T02:03:20.823Z,100108.69
2023-11-20T02:04:00.385Z,100104.31
2023-11-20T02:04:39.474Z,100101.81
2023-11-20T02:05:13.171Z,100110.47
2023-11-20T02:05:47.942Z,100107.81
2023-11-20T02:06:22.367Z,100101.66
2023-11-20T02:06:55.853Z,100104.28
2023-11-20T02:07:29.502Z,100098.19
2023-11-20T02:08:04.132Z,100106.84
2023-11-20T02:08:37.555Z,100101.63
2023-11-20T02:09:11.915Z,100112.91
2023-11-20T02:09:46.925Z,100103.34
2023-11-20T02:10:21.615Z,100099.81
2023-11-20T02:10:56.723Z,100100.66
2023-11-20T02:11:30.954Z,100099.75
2023-11-20T02:12:07.127Z,100099.75
2023-11-20T02:12:42.027Z,100095.44
2023-11-20T02:13:16.640Z,100098.84
2023-11-20T02:13:52.942Z,100096.19
2023-11-20T02:14:27.130Z,100094.47
2023-11-20T02:15:00.972Z,100094.47
2023-11-20T02:15:35.128Z,100090.09
2023-11-20T02:16:09.175Z,100092.75
2023-11-20T02:16:43.170Z,100096.19
2023-11-20T02:17:16.864Z,100096.25
2023-11-20T02:17:50.176Z,100095.34
2023-11-20T02:18:35.584Z,100099.72
2023-11-20T02:19:16.564Z,100095.28
2023-11-20T02:19:50.196Z,100094.41
2023-11-20T02:20:26.377Z,100101.44
2023-11-20T02:21:06.139Z,100092.81
2023-11-20T02:21:40.908Z,100103.28
2023-11-20T02:22:14.336Z,100102.38
2023-11-20T02:22:47.699Z,100103.22
2023-11-20T02:23:21.033Z,100101.47
2023-11-20T02:23:54.587Z,100105.00
2023-11-20T02:24:28.782Z,100113.75
2023-11-20T02:25:02.640Z,100103.22
2023-11-20T02:25:36.695Z,100105.00
2023-11-20T02:26:33.997Z,100103.22
2023-11-20T02:27:37.457Z,100106.72
2023-11-20T02:28:41.341Z,100111.09
2023-11-20T02:29:26.407Z,100108.50
2023-11-20T02:30:05.061Z,100112.03
2023-11-20T02:30:39.219Z,100105.09
2023-11-20T02:31:12.899Z,100111.16
2023-11-20T02:31:48.218Z,100112.03
2023-11-20T02:32:22.895Z,100119.03
2023-11-20T02:32:56.775Z,100117.31
2023-11-20T02:33:35.015Z,100121.72
2023-11-20T02:34:10.278Z,100126.09
2023-11-20T02:34:44.772Z,100128.69
2023-11-20T02:35:19.762Z,100127.81
2023-11-20T02:35:53.105Z,100124.44
2023-11-20T02:36:26.966Z,100133.13
2023-11-20T02:37:00.950Z,100127.97
2023-11-20T02:37:35.158Z,100120.16
2023-11-20T02:38:08.702Z,100121.06
2023-11-20T02:38:42.955Z,100111.50
2023-11-20T02:39:16.508Z,100122.84
2023-11-20T02:39:51.115Z,100122.00
2023-11-20T02:40:24.818Z,100119.47
2023-11-20T02:41:00.750Z,100126.41
2023-11-20T02:41:34.273Z,100125.56
2023-11-20T02:42:10.287Z,100116.00
2023-11-20T02:42:48.756Z,100118.75
2023-11-20T02:43:22.466Z,100117.91
2023-11-20T02:43:56.837Z,100119.69
2023-11-20T02:44:30.369Z,100116.19
2023-11-20T02:45:04.830Z,100112.66
2023-11-20T02:45:38.457Z,100108.38
2023-11-20T02:46:12.045Z,100112.75
2023-11-20T02:46:46.032Z,100114.50
2023-11-20T02:47:20.349Z,100112.78
2023-11-20T02:47:53.999Z,100106.75
2023-11-20T02:48:30.515Z,100113.69
2023-11-20T02:49:04.303Z,100107.63
2023-11-20T02:49:37.931Z,100117.22
2023-11-20T02:50:11.578Z,100111.16
2023-11-20T02:50:45.139Z,100107.69
2023-11-20T02:51:19.456Z,100102.50
2023-11-20T02:51:52.768Z,100102.50
2023-11-20T02:52:26.178Z,100104.25
2023-11-20T02:52:59.876Z,100100.78
2023-11-20T02:53:33.420Z,100102.56
2023-11-20T02:54:07.343Z,100104.34
2023-11-20T02:54:40.709Z,100099.97
2023-11-20T02:55:14.731Z,100106.09
2023-11-20T02:55:50.402Z,100099.16
2023-11-20T02:56:26.191Z,100102.72
2023-11-20T02:57:00.158Z,100098.41
2023-11-20T02:57:34.096Z,100094.09
2023-11-20T02:58:07.938Z,100108.06
2023-11-20T02:58:41.311Z,100098.53
2023-11-20T02:59:14.856Z,100096.84
2023-11-20T02:59:51.416Z,100095.94
2023-11-20T03:00:27.958Z,100093.28
2023-11-20T03:01:01.613Z,100096.81
2023-11-20T03:01:35.331Z,100101.16
2023-11-20T03:02:09.093Z,100111.63
2023-11-20T03:02:42.919Z,100103.81
2023-11-20T03:03:16.931Z,100095.13
2023-11-20T03:03:50.741Z,100100.34
2023-11-20T03:04:25.084Z,100104.72
2023-11-20T03:04:58.985Z,100107.41
2023-11-20T03:05:32.610Z,100099.56
2023-11-20T03:06:07.632Z,100107.41
2023-11-20T03:06:41.853Z,100100.47
2023-11-20T03:07:16.197Z,100103.94
2023-11-20T03:07:49.770Z,100104.84
2023-11-20T03:08:24.174Z,100104.84
2023-11-20T03:08:57.708Z,100106.63
2023-11-20T03:09:31.592Z,100111.81
2023-11-20T03:10:06.678Z,100107.41
2023-11-20T03:10:43.194Z,100089.28
2023-11-20T03:11:16.535Z,100097.94
2023-11-20T03:11:49.851Z,100102.25
2023-11-20T03:12:23.418Z,100095.31
2023-11-20T03:12:57.973Z,100097.91
2023-11-20T03:13:31.603Z,100087.44
2023-11-20T03:14:05.305Z,100094.38
2023-11-20T03:14:39.190Z,100094.34
2023-11-20T03:15:13.739Z,100105.63
2023-11-20T03:15:48.152Z,100096.91
2023-11-20T03:16:22.356Z,100104.72
2023-11-20T03:16:55.840Z,100105.56
2023-11-20T03:17:29.348Z,100103.00
2023-11-20T03:18:06.013Z,100096.06
2023-11-20T03:18:40.339Z,100093.41
2023-11-20T03:19:15.559Z,100104.72
2023-11-20T03:19:49.800Z,100104.72
2023-11-20T03:20:23.409Z,100098.69
2023-11-20T03:20:57.069Z,100101.22
2023-11-20T03:21:30.681Z,100095.19
2023-11-20T03:22:04.206Z,100102.09
2023-11-20T03:22:38.408Z,100096.88
2023-11-20T03:23:14.364Z,100098.53
2023-11-20T03:23:50.555Z,100101.13
2023-11-20T03:24:26.882Z,100100.22
2023-11-20T03:25:01.214Z,100108.06
2023-11-20T03:25:36.422Z,100101.94
2023-11-20T03:26:09.920Z,100104.56
2023-11-20T03:26:43.471Z,100097.63
2023-11-20T03:27:16.853Z,100099.28
2023-11-20T03:27:55.034Z,100098.34
2023-11-20T03:28:28.378Z,100102.72
2023-11-20T03:29:03.502Z,100096.69
2023-11-20T03:29:38.149Z,100100.09
2023-11-20T03:30:11.798Z,100104.47
2023-11-20T03:30:45.136Z,100100.97
2023-11-20T03:31:19.530Z,100097.41
2023-11-20T03:31:53.179Z,100100.88
2023-11-20T03:32:27.004Z,100101.72
2023-11-20T03:33:01.957Z,100093.03
2023-11-20T03:33:35.262Z,100099.16
2023-11-20T03:34:08.913Z,100093.03
2023-11-20T03:34:42.470Z,100091.25
2023-11-20T03:35:16.035Z,100097.31
2023-11-20T03:35:53.353Z,100093.84
2023-11-20T03:36:32.456Z,100090.34
2023-11-20T03:37:06.419Z,100092.06
2023-11-20T03:37:39.735Z,100089.44
2023-11-20T03:38:13.491Z,100092.00
2023-11-20T03:38:47.106Z,100088.50
2023-11-20T03:39:20.626Z,100090.22
2023-11-20T03:39:54.182Z,100088.50
2023-11-20T03:40:27.864Z,100088.50
2023-11-20T03:41:01.436Z,100086.78
2023-11-20T03:41:35.205Z,100085.88
2023-11-20T03:42:09.497Z,100079.75
2023-11-20T03:42:42.817Z,100078.84
2023-11-20T03:43:16.438Z,100072.75
2023-11-20T03:43:51.423Z,100075.28
2023-11-20T03:44:25.003Z,100079.63
2023-11-20T03:45:00.333Z,100068.31
2023-11-20T03:45:33.702Z,100073.53
2023-11-20T03:46:07.316Z,100062.22
2023-11-20T03:46:40.684Z,100058.72
2023-11-20T03:47:14.245Z,100058.72
2023-11-20T03:47:47.824Z,100060.38
2023-11-20T03:48:22.394Z,100056.06
2023-11-20T03:48:56.773Z,100056.00
2023-11-20T03:49:30.312Z,100058.63
2023-11-20T03:50:05.994Z,100058.63
2023-11-20T03:50:39.779Z,100059.47
2023-11-20T03:51:16.125Z,100048.16
2023-11-20T03:51:51.149Z,100056.81
2023-11-20T03:52:24.667Z,100051.53
2023-11-20T03:52:57.962Z,100042.78
2023-11-20T03:53:32.593Z,100044.50
2023-11-20T03:54:06.347Z,100033.19
2023-11-20T03:54:41.381Z,100034.91
2023-11-20T03:55:17.604Z,100039.22
2023-11-20T03:55:51.645Z,100038.38
2023-11-20T03:56:25.217Z,100034.03
2023-11-20T03:56:58.725Z,100031.47
2023-11-20T03:57:35.091Z,100034.06
2023-11-20T03:58:08.980Z,100031.44
2023-11-20T03:58:45.374Z,100036.56
2023-11-20T03:59:18.922Z,100032.28
2023-11-20T03:59:53.536Z,100031.38
2023-11-20T04:00:27.198Z,100031.38
2023-11-20T04:01:01.918Z,100023.53
2023-11-20T04:01:35.591Z,100033.94
2023-11-20T04:02:09.053Z,100027.81
2023-11-20T04:02:43.017Z,100025.19
2023-11-20T04:03:16.642Z,100021.69
2023-11-20T04:03:50.628Z,100022.59
2023-11-20T04:04:24.983Z,100019.97
2023-11-20T04:04:58.281Z,100025.19
2023-11-20T04:05:31.674Z,100023.41
2023-11-20T04:06:05.803Z,100017.31
2023-11-20T04:06:41.214Z,100017.31
2023-11-20T04:07:15.949Z,100023.41
2023-11-20T04:07:50.330Z,100020.78
2023-11-20T04:08:23.826Z,100023.41
2023-11-20T04:08:57.127Z,100030.44
2023-11-20T04:09:30.463Z,100026.06
2023-11-20T04:10:06.118Z,100023.47
2023-11-20T04:10:39.744Z,100021.78
2023-11-20T04:11:13.311Z,100013.97
2023-11-20T04:11:46.806Z,100023.53
2023-11-20T04:12:23.676Z,100018.34
2023-11-20T04:12:57.739Z,100022.78
2023-11-20T04:13:31.935Z,100025.38
2023-11-20T04:14:06.212Z,100028.00
2023-11-20T04:14:39.565Z,100021.94
2023-11-20T04:15:13.284Z,100035.84
2023-11-20T04:15:46.692Z,100032.38
2023-11-20T04:16:20.201Z,100034.16
2023-11-20T04:16:53.922Z,100041.22
2023-11-20T04:17:27.993Z,100036.84
2023-11-20T04:18:02.912Z,100034.31
2023-11-20T04:18:39.826Z,100034.31
2023-11-20T04:19:14.848Z,100027.44
2023-11-20T04:19:48.927Z,100036.16
2023-11-20T04:20:23.666Z,100030.94
2023-11-20T04:20:58.348Z,100025.72
2023-11-20T04:21:33.220Z,100036.16
2023-11-20T04:22:08.681Z,100031.03
2023-11-20T04:22:42.378Z,100027.63
2023-11-20T04:23:16.553Z,100031.91
2023-11-20T04:23:49.797Z,100042.25
2023-11-20T04:24:24.267Z,100039.66
2023-11-20T04:24:57.914Z,100041.41
2023-11-20T04:25:31.380Z,100034.41
2023-11-20T04:26:05.444Z,100037.88
2023-11-20T04:26:38.758Z,100035.22
2023-11-20T04:27:12.228Z,100037.81
2023-11-20T04:27:45.792Z,100046.50
2023-11-20T04:28:19.259Z,100043.03
2023-11-20T04:28:53.568Z,100044.78
2023-11-20T04:29:27.269Z,100041.25
2023-11-20T04:30:03.175Z,100041.25
2023-11-20T04:30:37.055Z,100042.97
2023-11-20T04:31:10.831Z,100035.97
2023-11-20T04:31:44.487Z,100043.75
2023-11-20T04:32:18.021Z,100048.16
2023-11-20T04:32:52.645Z,100044.59
2023-11-20T04:33:26.494Z,100044.59
2023-11-20T04:34:00.888Z,100048.97
2023-11-20T04:34:34.219Z,100044.59
2023-11-20T04:35:08.617Z,100044.50
2023-11-20T04:35:43.370Z,100051.50
2023-11-20T04:36:17.643Z,100041.88
2023-11-20T04:36:52.625Z,100043.59
2023-11-20T04:37:26.239Z,100045.31
2023-11-20T04:37:59.782Z,100054.06
2023-11-20T04:38:34.032Z,100047.06
2023-11-20T04:39:10.337Z,100054.88
2023-11-20T04:39:44.127Z,100054.88
2023-11-20T04:40:17.716Z,100054.78
2023-11-20T04:40:51.777Z,100054.78
2023-11-20T04:41:25.306Z,100056.56
2023-11-20T04:41:59.941Z,100064.47
2023-11-20T04:42:33.307Z,100060.94
2023-11-20T04:43:09.339Z,100056.53
2023-11-20T04:43:42.930Z,100062.63
2023-11-20T04:44:16.571Z,100061.69
2023-11-20T04:44:50.088Z,100057.28
2023-11-20T04:45:24.452Z,100059.91
2023-11-20T04:45:58.058Z,100059.97
2023-11-20T04:46:31.609Z,100060.00
2023-11-20T04:47:05.491Z,100061.75
2023-11-20T04:47:39.324Z,100072.22
2023-11-20T04:48:12.702Z,100071.28
2023-11-20T04:48:46.312Z,100066.00
2023-11-20T04:49:20.964Z,100065.06
2023-11-20T04:49:54.493Z,100066.84
2023-11-20T04:50:28.122Z,100068.63
2023-11-20T04:51:01.682Z,100070.41
2023-11-20T04:51:35.222Z,100071.22
2023-11-20T04:52:08.627Z,100064.38
2023-11-20T04:52:41.946Z,100068.72
2023-11-20T04:53:15.197Z,100082.53
2023-11-20T04:53:49.307Z,100070.28
2023-11-20T04:54:22.611Z,100075.50
2023-11-20T04:54:56.336Z,100073.75
2023-11-20T04:55:29.910Z,100063.19
2023-11-20T04:56:09.408Z,100075.47
2023-11-20T04:56:46.501Z,100068.56
2023-11-20T04:57:20.065Z,100076.34
2023-11-20T04:57:54.707Z,100075.41
2023-11-20T04:58:28.022Z,100070.19
2023-11-20T04:59:01.440Z,100071.88
2023-11-20T04:59:34.961Z,100064.94
2023-11-20T05:00:09.712Z,100061.47
2023-11-20T05:00:43.613Z,100064.09
2023-11-20T05:01:17.403Z,100059.63
2023-11-20T05:01:51.302Z,100068.31
